Time;durP1;ratioP1;P1;durP2;ratioP2;P2;SDS_P1;SDS_P2;PMS_P1;PMS_P2;Temp;Humidity;BMP_temperature;BMP_pressure;BME280_temperature;BME280_humidity;BME280_pressure;Samples;Min_cycle;Max_cycle;Signal;HPM_P1;HPM_P2
2022/08/25 00:00:49;;;;;;;;;13.00;13.00;;;;;26.73;52.38;99010.50;6257008;27;96800;-58
2022/08/25 00:03:52;;;;;;;;;14.40;13.00;;;;;26.72;52.62;99014.38;6259870;27;97013;-60
2022/08/25 00:06:56;;;;;;;;;14.00;13.00;;;;;26.69;52.86;99015.84;6263819;27;96661;-60
2022/08/25 00:10:08;;;;;;;;;13.00;12.00;;;;;26.66;52.62;99005.44;6260923;27;96728;-58
2022/08/25 00:13:11;;;;;;;;;12.00;11.25;;;;;26.64;52.23;99012.41;6254275;27;96371;-58
2022/08/25 00:16:19;;;;;;;;;14.20;14.00;;;;;26.61;52.80;99015.84;6262286;27;97204;-58
2022/08/25 00:19:25;;;;;;;;;12.00;11.00;;;;;26.59;52.90;99012.56;6256411;27;97558;-58
2022/08/25 00:22:28;;;;;;;;;12.25;11.25;;;;;26.54;52.80;99012.72;6259669;27;96352;-60
2022/08/25 00:25:33;;;;;;;;;15.20;14.80;;;;;26.52;52.88;99007.53;6261807;27;97086;-59
2022/08/25 00:28:38;;;;;;;;;14.60;13.00;;;;;26.51;52.59;99010.63;6247466;27;97462;-61
2022/08/25 00:31:43;;;;;;;;;11.00;10.60;;;;;26.43;52.94;99009.47;6246295;27;96892;-59
2022/08/25 00:34:46;;;;;;;;;12.00;11.60;;;;;26.44;52.73;99013.06;6250941;27;96671;-59
2022/08/25 00:37:50;;;;;;;;;13.00;13.00;;;;;26.43;52.75;99011.44;6261203;27;98091;-59
2022/08/25 00:41:05;;;;;;;;;15.20;14.00;;;;;26.25;52.73;98994.78;6262251;27;97460;-59
2022/08/25 00:44:11;;;;;;;;;14.50;12.50;;;;;26.39;52.65;99010.44;6244788;27;97444;-60
2022/08/25 00:47:14;;;;;;;;;12.00;11.00;;;;;26.37;52.60;99001.66;6260731;27;96611;-59
2022/08/25 00:50:19;;;;;;;;;13.40;12.40;;;;;26.37;52.64;98996.13;6254765;27;96606;-58
2022/08/25 00:53:23;;;;;;;;;12.00;11.40;;;;;26.34;52.78;99000.34;6254820;27;97453;-60
2022/08/25 00:56:30;;;;;;;;;14.00;13.00;;;;;26.32;52.90;98999.03;6252141;27;98075;-58
2022/08/25 00:59:34;;;;;;;;;14.00;12.20;;;;;26.31;53.06;99006.53;6238637;27;96972;-60
2022/08/25 01:02:38;;;;;;;;;16.75;16.25;;;;;26.30;53.09;99007.66;6254062;27;97280;-60
2022/08/25 01:05:46;;;;;;;;;11.60;11.60;;;;;26.28;53.31;99012.69;6243689;27;96720;-57
2022/08/25 01:08:50;;;;;;;;;13.60;13.40;;;;;26.26;53.26;99014.97;6255075;27;96599;-59
2022/08/25 01:11:55;;;;;;;;;13.00;13.00;;;;;26.26;52.94;99017.72;6247903;27;97542;-57
2022/08/25 01:15:00;;;;;;;;;14.00;13.60;;;;;26.24;53.04;99012.50;6239007;27;96404;-60
2022/08/25 01:18:04;;;;;;;;;10.20;10.20;;;;;26.21;53.17;99007.63;6258488;27;97907;-58
2022/08/25 01:21:09;;;;;;;;;12.00;12.00;;;;;26.20;53.00;99007.91;6243694;27;97734;-60
2022/08/25 01:24:20;;;;;;;;;11.33;11.33;;;;;26.18;53.23;98999.16;6249940;27;96668;-58
2022/08/25 01:27:23;;;;;;;;;12.40;11.00;;;;;26.17;53.08;99003.88;6250182;27;97408;-60
2022/08/25 01:30:27;;;;;;;;;12.00;12.00;;;;;26.15;53.08;99000.59;6244775;27;97639;-61
2022/08/25 01:33:31;;;;;;;;;16.00;14.00;;;;;26.13;52.78;98989.06;6252850;27;96749;-58
2022/08/25 01:36:36;;;;;;;;;15.00;14.00;;;;;26.10;52.77;98988.88;6251841;27;97164;-58
2022/08/25 01:39:40;;;;;;;;;15.00;15.00;;;;;26.10;53.36;98991.63;6252084;27;96335;-60
2022/08/25 01:42:54;;;;;;;;;13.60;12.60;;;;;26.08;53.37;98985.63;6258021;27;96857;-58
2022/08/25 01:45:58;;;;;;;;;14.60;13.60;;;;;26.08;53.58;98983.69;6246014;27;97051;-58
2022/08/25 01:49:02;;;;;;;;;12.60;12.00;;;;;26.07;53.67;98986.75;6248834;27;96413;-58
2022/08/25 01:52:16;;;;;;;;;13.60;13.60;;;;;26.05;53.84;98978.78;6265458;27;96838;-57
2022/08/25 01:55:20;;;;;;;;;16.00;16.00;;;;;26.03;53.56;98980.25;6265877;27;97469;-59
2022/08/25 01:58:29;;;;;;;;;16.75;15.25;;;;;26.02;53.72;98982.19;6250834;27;96610;-61
2022/08/25 02:01:32;;;;;;;;;14.40;14.00;;;;;26.00;53.83;98970.63;6258737;27;97412;-59
2022/08/25 02:04:36;;;;;;;;;15.00;14.40;;;;;25.99;53.60;98971.81;6254353;27;97089;-59
2022/08/25 02:07:41;;;;;;;;;18.20;18.20;;;;;25.98;53.78;98972.94;6252476;27;98305;-58
2022/08/25 02:10:45;;;;;;;;;12.60;12.40;;;;;25.99;53.46;98971.81;6250215;27;97797;-60
2022/08/25 02:13:49;;;;;;;;;12.00;11.25;;;;;25.98;53.57;98966.59;6263580;27;96957;-59
2022/08/25 02:16:54;;;;;;;;;13.00;13.00;;;;;25.96;53.54;98969.66;6242142;27;96601;-58
2022/08/25 02:19:58;;;;;;;;;16.80;16.00;;;;;25.95;53.67;98968.03;6249407;27;97474;-59
2022/08/25 02:23:03;;;;;;;;;19.00;18.00;;;;;25.95;53.76;98967.25;6263756;27;96401;-60
2022/08/25 02:26:06;;;;;;;;;14.60;13.60;;;;;25.94;53.90;98965.59;6266538;27;97122;-59
2022/08/25 02:29:10;;;;;;;;;16.40;15.00;;;;;25.93;53.81;98964.78;6250795;27;96903;-59
2022/08/25 02:32:14;;;;;;;;;15.60;14.60;;;;;25.92;53.61;98954.06;6262618;27;98122;-58
2022/08/25 02:35:17;;;;;;;;;15.00;14.60;;;;;25.89;53.62;98958.28;6258031;27;96905;-57
2022/08/25 02:38:22;;;;;;;;;14.00;14.00;;;;;25.88;53.78;98962.16;6258842;27;96858;-58
2022/08/25 02:41:27;;;;;;;;;14.80;13.60;;;;;25.86;53.47;98959.72;6262095;27;96893;-59
2022/08/25 02:44:34;;;;;;;;;13.00;12.00;;;;;25.87;53.51;98963.31;6250170;27;96556;-58
2022/08/25 02:47:37;;;;;;;;;20.25;20.25;;;;;25.84;53.37;98962.00;6253183;27;97864;-59
2022/08/25 02:50:45;;;;;;;;;17.00;14.60;;;;;25.78;53.57;98946.72;6251013;27;97783;-59
2022/08/25 02:53:51;;;;;;;;;16.40;16.40;;;;;25.82;53.53;98955.97;6263758;27;96739;-61
2022/08/25 02:56:56;;;;;;;;;14.20;13.00;;;;;25.80;53.50;98961.00;6273366;27;97423;-58
2022/08/25 02:59:59;;;;;;;;;17.25;16.25;;;;;25.78;53.64;98957.75;6255417;27;97479;-59
2022/08/25 03:03:03;;;;;;;;;13.60;12.60;;;;;25.78;53.71;98959.69;6257818;27;96668;-60
2022/08/25 03:06:08;;;;;;;;;11.00;10.80;;;;;25.78;53.31;98959.69;6246080;27;97407;-60
2022/08/25 03:09:12;;;;;;;;;16.00;16.00;;;;;25.77;53.27;98949.78;6263408;27;96825;-59
2022/08/25 03:12:16;;;;;;;;;15.00;14.00;;;;;25.76;53.10;98953.66;6254283;27;96850;-59
2022/08/25 03:15:20;;;;;;;;;14.60;13.60;;;;;25.75;53.08;98954.81;6252011;27;96957;-58
2022/08/25 03:18:23;;;;;;;;;17.00;16.00;;;;;25.75;52.94;98949.31;6261764;27;97952;-61
2022/08/25 03:21:28;;;;;;;;;16.00;14.00;;;;;25.76;53.16;98954.50;6252220;27;97147;-58
2022/08/25 03:24:33;;;;;;;;;18.00;16.00;;;;;25.74;53.43;98951.25;6256625;27;96863;-58
2022/08/25 03:27:35;;;;;;;;;18.20;17.40;;;;;25.73;53.43;98948.78;6254215;27;97396;-57
2022/08/25 03:30:39;;;;;;;;;20.00;19.00;;;;;25.71;53.54;98946.34;6247975;27;97446;-58
2022/08/25 03:33:42;;;;;;;;;28.00;28.00;;;;;25.70;53.21;98954.97;6260050;27;96481;-58
2022/08/25 03:36:48;;;;;;;;;31.25;30.00;;;;;25.69;53.48;98954.16;6252384;27;97431;-58
2022/08/25 03:39:53;;;;;;;;;25.25;25.25;;;;;25.23;53.18;98880.03;6260651;27;96863;-57
2022/08/25 03:42:57;;;;;;;;;21.33;21.33;;;;;25.67;53.32;98953.66;6250027;27;97984;-58
2022/08/25 03:46:00;;;;;;;;;17.20;15.60;;;;;25.68;53.27;98949.75;6249583;27;97679;-60
2022/08/25 03:49:06;;;;;;;;;22.00;21.60;;;;;25.67;53.18;98958.34;6256351;27;97551;-59
2022/08/25 03:52:09;;;;;;;;;23.00;21.40;;;;;25.66;53.21;98942.91;6257008;27;97159;-60
2022/08/25 03:55:14;;;;;;;;;29.00;28.60;;;;;25.67;53.29;98953.66;6265030;27;96962;-58
2022/08/25 03:58:18;;;;;;;;;33.00;30.60;;;;;25.68;53.21;98944.22;6264418;27;96929;-59
2022/08/25 04:01:22;;;;;;;;;34.00;32.00;;;;;25.69;53.19;98943.09;6256318;27;96881;-60
2022/08/25 04:04:26;;;;;;;;;39.20;34.80;;;;;25.70;53.13;98943.94;6255650;27;96877;-60
2022/08/25 04:07:29;;;;;;;;;36.00;32.20;;;;;25.72;53.41;98941.63;6263817;27;97551;-59
2022/08/25 04:10:34;;;;;;;;;36.75;33.75;;;;;25.73;53.13;98930.28;6263689;27;96934;-59
2022/08/25 04:13:37;;;;;;;;;38.00;33.00;;;;;25.74;53.22;98942.97;6261389;27;98557;-60
2022/08/25 04:16:40;;;;;;;;;42.50;36.00;;;;;25.78;53.08;98934.84;6255398;27;98057;-60
2022/08/25 04:19:44;;;;;;;;;31.00;30.00;;;;;25.82;53.18;98935.81;6250966;27;97088;-60
2022/08/25 04:22:47;;;;;;;;;32.00;31.00;;;;;25.85;53.24;98941.50;6253889;27;97082;-57
2022/08/25 04:25:52;;;;;;;;;28.50;28.00;;;;;25.90;52.96;98939.75;6250738;27;96987;-59
2022/08/25 04:28:59;;;;;;;;;33.00;30.00;;;;;25.94;53.01;98940.75;6238196;27;97970;-60
2022/08/25 04:32:02;;;;;;;;;32.00;30.00;;;;;25.99;53.12;98943.34;6244734;27;96741;-58
2022/08/25 04:35:07;;;;;;;;;34.75;32.25;;;;;26.05;53.39;98951.16;6241447;27;96724;-59
2022/08/25 04:38:10;;;;;;;;;34.00;32.00;;;;;26.13;53.31;98944.84;6239333;27;97518;-61
2022/08/25 04:41:17;;;;;;;;;38.00;34.00;;;;;26.22;53.39;98944.88;6243233;27;97537;-59
2022/08/25 04:44:21;;;;;;;;;29.25;28.50;;;;;26.33;53.22;98945.41;6243522;27;97159;-60
2022/08/25 04:47:24;;;;;;;;;27.75;26.00;;;;;26.42;53.06;98952.56;6240028;27;97431;-60
2022/08/25 04:50:30;;;;;;;;;28.80;25.00;;;;;26.52;52.96;98949.47;6241109;27;96537;-58
2022/08/25 04:53:35;;;;;;;;;25.00;24.00;;;;;26.61;53.06;98952.25;6240527;27;96962;-59
2022/08/25 04:56:41;;;;;;;;;29.00;28.75;;;;;26.57;53.06;98938.25;6244553;27;98199;-59
2022/08/25 04:59:45;;;;;;;;;32.25;31.25;;;;;26.77;52.82;98944.25;6241627;27;96923;-59
2022/08/25 05:02:48;;;;;;;;;30.50;29.50;;;;;26.86;53.06;98950.59;6251505;27;97219;-59
2022/08/25 05:05:53;;;;;;;;;19.50;19.00;;;;;26.96;52.55;98950.28;6239213;27;97735;-60
2022/08/25 05:08:57;;;;;;;;;18.60;17.60;;;;;27.04;52.38;98950.28;6240356;27;100117;-58
2022/08/25 05:12:03;;;;;;;;;19.75;18.00;;;;;27.13;52.51;98941.94;6237429;27;97439;-61
2022/08/25 05:18:27;;;;;;;;;15.00;14.00;;;;;27.29;51.80;98945.00;6221207;27;98745;-58
2022/08/25 05:21:31;;;;;;;;;15.80;14.80;;;;;27.36;51.42;98948.91;6247999;27;97456;-60
2022/08/25 05:24:34;;;;;;;;;17.00;16.00;;;;;27.44;51.17;98948.06;6249151;27;97896;-59
2022/08/25 05:27:39;;;;;;;;;20.00;19.00;;;;;27.50;50.51;98934.88;6241868;27;97302;-59
2022/08/25 05:30:45;;;;;;;;;15.25;14.25;;;;;27.55;50.54;98941.06;6252098;27;97984;-61
2022/08/25 05:33:49;;;;;;;;;14.50;12.00;;;;;27.63;51.07;98933.84;6241172;27;96641;-62
2022/08/25 05:36:53;;;;;;;;;20.40;17.00;;;;;27.72;51.01;98942.09;6266897;27;97114;-59
2022/08/25 05:39:57;;;;;;;;;16.00;14.00;;;;;27.80;50.85;98939.31;6249916;27;96665;-60
2022/08/25 05:43:01;;;;;;;;;15.20;13.80;;;;;27.77;51.14;98916.97;6243102;27;97369;-61
2022/08/25 05:46:05;;;;;;;;;14.60;14.00;;;;;27.99;50.61;98947.19;6235590;28;99166;-61
2022/08/25 05:49:08;;;;;;;;;19.00;18.20;;;;;28.10;50.89;98942.84;6241202;27;96638;-60
2022/08/25 05:52:12;;;;;;;;;13.80;13.20;;;;;28.20;50.67;98938.94;6237057;28;97425;-60
2022/08/25 05:55:22;;;;;;;;;16.60;16.00;;;;;28.19;50.45;98935.34;6237169;27;97038;-61
2022/08/25 05:58:28;;;;;;;;;13.50;12.50;;;;;28.32;49.99;98945.38;6235893;27;96631;-60
2022/08/25 06:04:52;;;;;;;;;15.20;14.00;;;;;28.64;50.01;98954.09;6237411;27;96691;-61
2022/08/25 06:07:56;;;;;;;;;16.00;14.25;;;;;28.75;48.94;98947.00;6236281;27;97407;-63
2022/08/25 06:10:59;;;;;;;;;14.00;12.60;;;;;28.84;49.03;98943.00;6237283;27;97387;-60
2022/08/25 06:14:04;;;;;;;;;18.40;16.00;;;;;28.92;48.60;98951.59;6246015;27;96544;-62
2022/08/25 06:17:08;;;;;;;;;17.80;15.20;;;;;29.00;48.56;98942.38;6236974;27;96839;-61
2022/08/25 06:20:14;;;;;;;;;17.00;14.25;;;;;29.10;48.79;98950.28;6237796;27;97512;-61
2022/08/25 06:23:18;;;;;;;;;15.00;15.00;;;;;29.08;48.45;98925.63;6250435;27;96481;-61
2022/08/25 06:26:22;;;;;;;;;14.80;13.00;;;;;29.28;48.00;98944.19;6261317;27;97025;-61
2022/08/25 06:29:26;;;;;;;;;15.00;14.00;;;;;29.40;47.83;98950.97;6252160;27;99531;-59
2022/08/25 06:32:31;;;;;;;;;15.75;14.75;;;;;29.45;48.62;98954.34;6235431;27;98397;-60
2022/08/25 06:35:34;;;;;;;;;19.00;18.00;;;;;29.62;47.42;98962.44;6236657;27;97410;-59
2022/08/25 06:38:40;;;;;;;;;17.00;16.00;;;;;29.71;47.75;98957.59;6240435;27;96539;-61
2022/08/25 06:41:43;;;;;;;;;13.60;13.60;;;;;29.86;47.42;98960.88;6240099;27;98114;-60
2022/08/25 06:44:48;;;;;;;;;17.00;16.00;;;;;29.97;47.30;98957.28;6240024;28;96406;-58
2022/08/25 06:47:53;;;;;;;;;19.60;18.60;;;;;30.06;47.27;98962.72;6239577;27;97423;-61
2022/08/25 06:50:56;;;;;;;;;22.80;19.40;;;;;30.19;47.65;98958.78;6258425;27;98291;-60
2022/08/25 06:54:00;;;;;;;;;16.00;13.00;;;;;30.30;46.31;98959.13;6239636;27;97074;-60
2022/08/25 06:57:04;;;;;;;;;19.75;18.75;;;;;30.39;46.83;98968.16;6239184;27;97241;-60
2022/08/25 07:00:10;;;;;;;;;22.40;20.40;;;;;30.50;46.23;98958.97;6239520;27;96909;-59
2022/08/25 07:03:14;;;;;;;;;19.20;18.20;;;;;30.64;46.22;98958.63;6250637;27;97085;-63
2022/08/25 07:06:18;;;;;;;;;18.00;16.00;;;;;30.78;45.66;98958.22;6239661;27;97217;-57
2022/08/25 07:09:21;;;;;;;;;18.00;16.00;;;;;30.88;45.43;98952.97;6239544;27;97058;-57
2022/08/25 07:12:25;;;;;;;;;19.60;19.00;;;;;31.03;45.35;98961.75;6244142;27;96921;-60
2022/08/25 07:15:29;;;;;;;;;23.40;19.80;;;;;31.07;45.19;98943.16;6246478;27;97799;-63
2022/08/25 07:18:33;;;;;;;;;17.60;15.60;;;;;31.29;44.80;98957.28;6243247;27;96661;-60
2022/08/25 07:21:40;;;;;;;;;20.75;20.00;;;;;31.40;45.07;98954.81;6249265;27;96474;-61
2022/08/25 07:24:44;;;;;;;;;21.00;20.00;;;;;31.61;44.68;98957.38;6250559;27;97190;-62
2022/08/25 07:27:47;;;;;;;;;22.40;22.00;;;;;31.80;43.62;98963.84;6243829;27;96906;-60
2022/08/25 07:30:52;;;;;;;;;20.00;19.00;;;;;31.95;43.85;98959.44;6256658;27;97575;-62
2022/08/25 07:37:16;;;;;;;;;21.00;20.40;;;;;32.17;42.59;98963.56;6260504;27;97463;-60
2022/08/25 07:40:39;;;;;;;;;21.00;18.00;;;;;32.28;42.91;98956.25;6262026;27;98551;-58
2022/08/25 07:43:46;;;;;;;;;23.60;23.00;;;;;32.48;43.07;98969.06;6249539;27;96921;-61
2022/08/25 07:46:53;;;;;;;;;19.25;19.00;;;;;32.70;42.36;98966.75;6249653;27;96532;-60
2022/08/25 07:49:57;;;;;;;;;20.75;19.00;;;;;32.87;41.46;98967.16;6263662;27;97576;-63
2022/08/25 07:53:01;;;;;;;;;19.00;18.00;;;;;32.99;41.13;98963.38;6262710;27;97241;-64
2022/08/25 07:56:10;;;;;;;;;18.80;18.40;;;;;32.91;41.86;98936.50;6257301;27;97422;-59
2022/08/25 07:59:13;;;;;;;;;26.00;22.00;;;;;33.24;41.44;98955.50;6254767;27;96454;-58
2022/08/25 08:02:19;;;;;;;;;19.50;19.00;;;;;33.43;41.50;98961.06;6262957;27;97192;-58
2022/08/25 08:05:27;;;;;;;;;18.00;17.00;;;;;33.69;41.09;98958.38;6260289;27;96446;-57
2022/08/25 08:08:30;;;;;;;;;18.00;16.00;;;;;33.92;40.08;98964.75;6252012;27;97573;-60
2022/08/25 08:11:39;;;;;;;;;19.50;17.75;;;;;34.17;40.02;98967.13;6247428;27;97707;-61
2022/08/25 08:14:55;;;;;;;;;16.00;14.20;;;;;34.47;39.12;98964.41;6238087;27;97612;-62
2022/08/25 08:18:00;;;;;;;;;17.80;15.20;;;;;34.66;38.26;98958.66;6254319;27;97919;-62
2022/08/25 08:21:11;;;;;;;;;17.60;17.00;;;;;34.68;37.88;98953.53;6247449;27;97419;-60
2022/08/25 08:24:14;;;;;;;;;19.20;18.20;;;;;34.92;37.53;98957.84;6262994;27;96279;-60
2022/08/25 08:27:38;;;;;;;;;21.00;16.60;;;;;35.05;38.02;98962.78;6248137;27;97191;-61
2022/08/25 08:30:41;;;;;;;;;16.25;16.00;;;;;35.04;36.35;98949.97;6252693;27;98012;-59
2022/08/25 08:33:57;;;;;;;;;18.60;17.00;;;;;35.22;36.88;98958.63;6237468;27;96648;-56
2022/08/25 08:37:01;;;;;;;;;17.00;16.00;;;;;35.23;36.12;98962.22;6239208;27;96649;-59
2022/08/25 08:40:05;;;;;;;;;20.40;17.00;;;;;35.18;36.16;98961.41;6235838;27;97060;-62
2022/08/25 08:43:18;;;;;;;;;20.00;17.40;;;;;35.25;37.12;98949.44;6238256;27;97399;-63
2022/08/25 08:46:23;;;;;;;;;19.00;18.00;;;;;35.34;36.68;98952.72;6251359;27;97428;-58
2022/08/25 08:49:37;;;;;;;;;22.00;19.25;;;;;35.37;36.99;98953.97;6238503;27;96567;-58
2022/08/25 08:52:46;;;;;;;;;17.00;16.50;;;;;35.30;36.31;98951.06;6238800;27;97343;-56
2022/08/25 08:55:55;;;;;;;;;19.40;17.00;;;;;35.35;36.79;98950.72;6238948;27;96881;-61
2022/08/25 08:59:03;;;;;;;;;18.00;17.00;;;;;35.30;36.13;98939.88;6250145;27;97424;-61
2022/08/25 09:02:21;;;;;;;;;20.40;17.40;;;;;35.37;36.89;98945.56;6235705;27;97458;-60
2022/08/25 09:05:49;;;;;;;;;18.00;17.00;;;;;35.53;37.10;98946.91;6236667;27;96919;-58
2022/08/25 09:08:54;;;;;;;;;18.00;16.60;;;;;35.72;36.22;98947.94;6246125;27;97322;-58
2022/08/25 09:12:11;;;;;;;;;19.40;18.40;;;;;35.91;36.75;98944.88;6237192;28;96817;-60
2022/08/25 09:19:07;;;;;;;;;21.00;20.00;;;;;36.04;36.49;98946.97;6250432;27;97685;-58
2022/08/25 09:22:23;;;;;;;;;20.00;18.00;;;;;36.21;35.94;98948.34;6255657;27;97648;-59
2022/08/25 09:25:45;;;;;;;;;23.40;19.40;;;;;36.27;35.50;98938.31;6249041;27;97286;-61
2022/08/25 09:29:03;;;;;;;;;18.60;17.00;;;;;36.32;34.96;98939.97;6254364;27;97439;-60
2022/08/25 09:32:09;;;;;;;;;18.00;16.50;;;;;36.42;36.02;98930.78;6242155;27;97220;-62
2022/08/25 09:35:21;;;;;;;;;17.50;15.50;;;;;36.59;35.15;98934.91;6240404;27;96587;-58
2022/08/25 09:38:27;;;;;;;;;18.60;17.60;;;;;36.75;34.80;98927.00;6237024;27;97048;-62
2022/08/25 09:41:46;;;;;;;;;19.00;16.40;;;;;36.99;34.36;98925.47;6245379;27;97553;-59
2022/08/25 09:44:53;;;;;;;;;20.00;18.00;;;;;37.15;34.13;98932.34;6237674;27;97045;-61
2022/08/25 09:47:56;;;;;;;;;18.50;17.00;;;;;37.31;33.32;98932.78;6242434;27;97015;-61
2022/08/25 09:51:10;;;;;;;;;16.00;15.00;;;;;37.33;33.24;98915.53;6240403;27;97411;-62
2022/08/25 09:54:23;;;;;;;;;17.00;16.00;;;;;37.41;32.92;98927.59;6239468;27;99981;-59
2022/08/25 09:57:45;;;;;;;;;16.00;15.00;;;;;37.36;33.30;98925.97;6260298;27;97309;-59
2022/08/25 10:01:03;;;;;;;;;19.00;16.00;;;;;37.44;33.66;98927.59;6236562;27;97406;-64
2022/08/25 10:04:06;;;;;;;;;14.00;13.00;;;;;37.23;32.86;98883.38;6236582;27;97459;-58
2022/08/25 10:07:26;;;;;;;;;17.00;15.60;;;;;37.31;33.36;98920.75;6260450;27;98187;-59
2022/08/25 10:10:34;;;;;;;;;16.00;14.00;;;;;37.24;34.37;98910.28;6235841;27;97525;-60
2022/08/25 10:13:41;;;;;;;;;14.75;13.00;;;;;37.20;33.72;98901.03;6242969;27;96892;-64
2022/08/25 10:16:47;;;;;;;;;15.00;14.00;;;;;37.29;34.14;98911.88;6244860;27;97988;-58
2022/08/25 10:19:52;;;;;;;;;14.40;13.00;;;;;37.51;33.60;98915.53;6240529;27;97475;-59
2022/08/25 10:23:10;;;;;;;;;18.00;17.00;;;;;37.72;33.21;98907.16;6265827;27;97372;-58
2022/08/25 10:26:28;;;;;;;;;15.60;14.60;;;;;37.94;33.87;98907.94;6248248;27;97509;-58
2022/08/25 10:30:01;;;;;;;;;13.50;13.00;;;;;38.02;32.77;98899.09;6251403;27;97476;-61
2022/08/25 10:33:16;;;;;;;;;12.60;11.40;;;;;37.88;32.04;98876.56;6240455;27;97511;-61
2022/08/25 10:36:22;;;;;;;;;13.60;12.60;;;;;37.90;32.62;98873.34;6241122;27;97328;-64
2022/08/25 10:39:38;;;;;;;;;15.00;14.00;;;;;37.98;32.98;98874.94;6242882;27;97412;-58
2022/08/25 10:42:57;;;;;;;;;14.00;13.00;;;;;38.11;32.06;98881.81;6245860;27;97485;-57
2022/08/25 10:46:11;;;;;;;;;14.20;13.00;;;;;38.27;32.74;98868.06;6242614;27;97766;-59
2022/08/25 10:49:19;;;;;;;;;13.00;12.60;;;;;38.44;32.22;98883.34;6238026;27;97233;-64
2022/08/25 10:52:32;;;;;;;;;14.00;13.00;;;;;38.45;31.71;98870.88;6237987;28;96726;-65
2022/08/25 10:55:49;;;;;;;;;12.60;11.00;;;;;38.52;32.51;98863.16;6244990;27;97422;-62
2022/08/25 10:59:16;;;;;;;;;11.80;11.00;;;;;38.53;31.10;98863.97;6241247;27;96930;-63
2022/08/25 11:02:44;;;;;;;;;15.40;14.00;;;;;38.42;32.47;98847.09;6239350;27;96838;-58
2022/08/25 11:05:53;;;;;;;;;15.60;13.00;;;;;38.58;32.12;98844.63;6248021;27;96656;-58
2022/08/25 11:09:03;;;;;;;;;13.75;11.75;;;;;38.86;31.51;98856.97;6239145;27;96573;-58
2022/08/25 11:12:13;;;;;;;;;13.40;12.40;;;;;38.96;30.38;98847.66;6238134;27;96377;-59
2022/08/25 11:15:23;;;;;;;;;14.50;13.00;;;;;39.06;31.26;98849.63;6244572;27;97378;-63
2022/08/25 11:18:30;;;;;;;;;14.00;13.00;;;;;39.20;30.29;98849.50;6242449;27;97125;-60
2022/08/25 11:21:44;;;;;;;;;12.40;10.80;;;;;39.27;29.59;98849.47;6254740;27;97411;-64
2022/08/25 11:25:02;;;;;;;;;13.00;12.00;;;;;39.29;29.44;98849.84;6263546;27;98049;-59
2022/08/25 11:28:11;;;;;;;;;12.50;11.75;;;;;39.38;29.92;98838.16;6264323;27;97460;-62
2022/08/25 11:31:18;;;;;;;;;13.00;12.00;;;;;39.52;29.33;98834.41;6253408;27;97852;-57
2022/08/25 11:34:23;;;;;;;;;13.00;12.40;;;;;39.48;29.14;98839.28;6264136;27;97450;-57
2022/08/25 11:37:31;;;;;;;;;13.00;12.00;;;;;39.49;29.71;98843.69;6264225;27;96869;-63
2022/08/25 11:40:50;;;;;;;;;12.60;12.00;;;;;39.54;29.72;98834.78;6261579;27;97049;-57
2022/08/25 11:44:17;;;;;;;;;13.00;11.40;;;;;39.60;29.94;98827.47;6254179;27;98015;-59
2022/08/25 11:47:40;;;;;;;;;11.20;9.00;;;;;39.71;29.65;98831.00;6255093;27;97957;-59
2022/08/25 11:50:59;;;;;;;;;10.75;10.75;;;;;39.79;29.10;98832.53;6264148;27;97274;-59
2022/08/25 11:54:16;;;;;;;;;14.40;13.40;;;;;39.77;28.24;98826.53;6264236;27;96896;-59
2022/08/25 11:57:25;;;;;;;;;10.00;9.40;;;;;39.66;28.97;98823.78;6253726;27;97060;-58
2022/08/25 12:00:41;;;;;;;;;11.60;11.00;;;;;39.60;29.92;98810.53;6250344;27;96923;-58
2022/08/25 12:04:11;;;;;;;;;12.00;12.00;;;;;39.47;29.66;98812.28;6264109;27;97483;-63
2022/08/25 12:07:29;;;;;;;;;11.40;10.40;;;;;39.48;29.01;98813.88;6253105;27;97358;-58
2022/08/25 12:10:55;;;;;;;;;10.20;8.20;;;;;39.56;29.26;98807.75;6249773;27;97460;-59
2022/08/25 12:14:15;;;;;;;;;11.50;10.50;;;;;39.58;29.17;98816.59;6261560;27;97594;-59
2022/08/25 12:17:36;;;;;;;;;11.50;11.00;;;;;39.57;29.00;98811.38;6258371;27;97589;-58
2022/08/25 12:21:11;;;;;;;;;10.80;10.00;;;;;39.51;28.93;98810.22;6248006;27;97776;-58
2022/08/25 12:24:18;;;;;;;;;11.00;10.40;;;;;39.39;29.50;98812.31;6248875;27;97510;-61
2022/08/25 12:27:30;;;;;;;;;14.00;12.00;;;;;39.23;28.55;98805.59;6262839;27;97071;-59
2022/08/25 12:30:46;;;;;;;;;13.00;12.00;;;;;39.18;29.50;98794.75;6249239;27;96643;-59
2022/08/25 12:34:08;;;;;;;;;13.00;11.00;;;;;39.08;28.92;98795.66;6248454;27;97577;-64
2022/08/25 12:37:18;;;;;;;;;14.20;12.80;;;;;38.99;29.44;98796.13;6263059;27;97089;-57
2022/08/25 12:40:27;;;;;;;;;13.75;12.00;;;;;38.80;29.59;98791.78;6263353;27;97517;-60
2022/08/25 12:43:34;;;;;;;;;17.00;15.00;;;;;38.73;29.64;98783.38;6260739;27;97584;-58
2022/08/25 12:46:44;;;;;;;;;12.00;11.40;;;;;38.60;29.04;98776.63;6252502;27;98057;-60
2022/08/25 12:49:50;;;;;;;;;14.00;11.50;;;;;38.44;29.59;98770.66;6244130;27;97557;-60
2022/08/25 12:52:58;;;;;;;;;15.00;14.00;;;;;38.36;29.75;98764.25;6243617;27;97449;-62
2022/08/25 12:56:06;;;;;;;;;14.50;13.00;;;;;38.24;30.07;98761.88;6238027;27;97622;-57
2022/08/25 12:59:17;;;;;;;;;13.00;12.00;;;;;38.09;30.66;98768.78;6257359;27;97073;-59
2022/08/25 13:02:56;;;;;;;;;13.40;12.40;;;;;38.00;30.41;98760.78;6236759;27;97525;-58
2022/08/25 13:06:19;;;;;;;;;13.60;13.00;;;;;38.09;31.93;98760.34;6251921;27;97194;-59
2022/08/25 13:10:01;;;;;;;;;13.80;13.00;;;;;38.08;30.54;98762.34;6249555;27;97435;-58
2022/08/25 13:13:11;;;;;;;;;15.40;12.40;;;;;38.17;30.79;98754.25;6230821;27;96742;-59
2022/08/25 13:16:18;;;;;;;;;14.40;13.40;;;;;38.26;30.86;98751.03;6237705;27;97004;-58
2022/08/25 13:19:22;;;;;;;;;12.20;10.00;;;;;38.29;28.80;98763.47;6248514;27;97431;-61
2022/08/25 13:22:26;;;;;;;;;14.60;12.60;;;;;38.23;28.40;98756.66;6257306;27;97520;-61
2022/08/25 13:25:34;;;;;;;;;13.25;12.00;;;;;38.10;28.93;98757.13;6261527;27;97501;-60
2022/08/25 13:28:40;;;;;;;;;12.00;11.00;;;;;37.91;28.35;98757.56;6243481;27;97283;-61
2022/08/25 13:31:55;;;;;;;;;15.00;13.00;;;;;37.74;29.21;98747.97;6237493;28;97491;-59
2022/08/25 13:35:12;;;;;;;;;11.00;10.00;;;;;37.72;28.70;98758.03;6237047;27;97187;-62
2022/08/25 13:38:18;;;;;;;;;15.00;14.40;;;;;37.63;29.63;98750.00;6247801;27;96791;-58
2022/08/25 13:41:25;;;;;;;;;14.00;12.33;;;;;37.60;30.16;98752.81;6236448;27;97558;-58
2022/08/25 13:44:38;;;;;;;;;14.00;12.60;;;;;37.41;30.33;98727.91;6243445;27;97586;-57
2022/08/25 13:47:54;;;;;;;;;12.40;11.00;;;;;37.40;28.42;98762.88;6241462;27;97500;-58
2022/08/25 13:51:08;;;;;;;;;11.00;10.00;;;;;37.26;27.73;98747.63;6240828;27;97599;-59
2022/08/25 13:54:28;;;;;;;;;13.75;11.00;;;;;36.94;28.84;98726.31;6254887;27;96964;-58
2022/08/25 13:57:33;;;;;;;;;13.00;12.00;;;;;37.00;30.09;98745.19;6258289;27;97391;-58
2022/08/25 14:00:44;;;;;;;;;13.00;12.40;;;;;36.93;30.84;98747.19;6241277;27;96619;-60
2022/08/25 14:03:49;;;;;;;;;14.00;12.00;;;;;36.95;31.44;98747.63;6242305;27;96841;-61
2022/08/25 14:07:14;;;;;;;;;12.40;11.80;;;;;36.94;30.65;98743.19;6253931;27;97398;-58
2022/08/25 14:10:33;;;;;;;;;14.00;13.00;;;;;36.94;30.50;98740.38;6240930;27;96551;-58
2022/08/25 14:13:43;;;;;;;;;15.40;14.00;;;;;36.95;29.94;98734.34;6243685;27;97459;-59
2022/08/25 14:16:51;;;;;;;;;13.00;12.00;;;;;36.98;30.13;98732.75;6240763;27;97056;-61
2022/08/25 14:19:59;;;;;;;;;14.60;13.00;;;;;36.97;29.18;98733.94;6241498;27;97509;-61
2022/08/25 14:23:06;;;;;;;;;15.50;13.50;;;;;36.88;29.09;98732.34;6251179;27;97523;-60
2022/08/25 14:26:12;;;;;;;;;14.25;12.75;;;;;36.80;29.10;98727.91;6256823;27;96392;-61
2022/08/25 14:29:17;;;;;;;;;15.00;14.00;;;;;36.69;29.50;98726.31;6261421;27;97399;-62
2022/08/25 14:32:20;;;;;;;;;18.25;16.25;;;;;36.63;29.82;98719.47;6244484;27;97445;-56
2022/08/25 14:35:24;;;;;;;;;19.00;18.00;;;;;36.58;30.00;98717.84;6265062;27;96917;-58
2022/08/25 14:38:28;;;;;;;;;16.00;14.00;;;;;36.57;30.34;98721.03;6265658;27;97099;-56